sensor_id;sensor_type;location;lat;lon;timestamp;pressure;altitude;pressure_sealevel;temperature;humidity
3832;BME280;12460;42.662;23.288;2023-07-24T00:12:24;94759.44;;;24.94;44.84
3832;BME280;12460;42.662;23.288;2023-07-24T00:27:26;94758.91;;;24.80;44.74
3832;BME280;12460;42.662;23.288;2023-07-24T00:42:27;94750.44;;;24.67;44.97
3832;BME280;12460;42.662;23.288;2023-07-24T00:57:29;94750.66;;;24.53;44.92
3832;BME280;12460;42.662;23.288;2023-07-24T01:12:47;94752.78;;;24.15;46.35
3832;BME280;12460;42.662;23.288;2023-07-24T01:27:52;94744.44;;;23.71;46.60
3832;BME280;12460;42.662;23.288;2023-07-24T01:42:53;94761.25;;;23.43;45.97
3832;BME280;12460;42.662;23.288;2023-07-24T01:57:55;94733.34;;;23.12;46.45
3832;BME280;12460;42.662;23.288;2023-07-24T02:12:57;94745.25;;;22.73;47.55
3832;BME280;12460;42.662;23.288;2023-07-24T02:27:59;94744.50;;;22.88;50.33
3832;BME280;12460;42.662;23.288;2023-07-24T02:43:01;94735.81;;;22.86;50.95
3832;BME280;12460;42.662;23.288;2023-07-24T02:58:03;94727.84;;;22.54;52.70
3832;BME280;12460;42.662;23.288;2023-07-24T03:13:05;94730.56;;;22.50;52.04
3832;BME280;12460;42.662;23.288;2023-07-24T03:28:07;94740.00;;;22.68;52.15
3832;BME280;12460;42.662;23.288;2023-07-24T03:43:09;94736.41;;;24.57;44.40
3832;BME280;12460;42.662;23.288;2023-07-24T03:58:11;94747.72;;;24.51;43.65
3832;BME280;12460;42.662;23.288;2023-07-24T04:13:13;94754.03;;;25.65;43.72
3832;BME280;12460;42.662;23.288;2023-07-24T04:28:16;94757.13;;;26.60;43.55
3832;BME280;12460;42.662;23.288;2023-07-24T04:43:18;94745.22;;;28.32;40.22
3832;BME280;12460;42.662;23.288;2023-07-24T04:58:20;94761.38;;;29.40;38.41
3832;BME280;12460;42.662;23.288;2023-07-24T05:13:22;94761.94;;;31.00;36.22
3832;BME280;12460;42.662;23.288;2023-07-24T05:28:25;94757.66;;;31.65;34.04
3832;BME280;12460;42.662;23.288;2023-07-24T05:43:28;94741.41;;;32.10;32.59
3832;BME280;12460;42.662;23.288;2023-07-24T05:58:30;94735.81;;;32.38;31.34
3832;BME280;12460;42.662;23.288;2023-07-24T06:13:32;94725.41;;;33.17;30.57
3832;BME280;12460;42.662;23.288;2023-07-24T06:28:34;94716.88;;;34.92;28.39
3832;BME280;12460;42.662;23.288;2023-07-24T06:43:37;94715.44;;;34.81;28.12
3832;BME280;12460;42.662;23.288;2023-07-24T06:58:38;94715.13;;;36.73;26.14
3832;BME280;12460;42.662;23.288;2023-07-24T07:13:40;94728.75;;;38.23;25.36
3832;BME280;12460;42.662;23.288;2023-07-24T07:28:42;94706.81;;;39.03;24.72
3832;BME280;12460;42.662;23.288;2023-07-24T07:43:46;94698.44;;;37.86;26.20
3832;BME280;12460;42.662;23.288;2023-07-24T07:58:48;94698.94;;;35.89;28.06
3832;BME280;12460;42.662;23.288;2023-07-24T08:13:50;94701.53;;;37.73;26.12
3832;BME280;12460;42.662;23.288;2023-07-24T08:28:53;94676.84;;;36.93;26.89
3832;BME280;12460;42.662;23.288;2023-07-24T08:43:55;94656.28;;;36.93;26.54
3832;BME280;12460;42.662;23.288;2023-07-24T08:58:57;94648.47;;;39.49;24.26
3832;BME280;12460;42.662;23.288;2023-07-24T09:13:58;94647.41;;;38.07;24.91
3832;BME280;12460;42.662;23.288;2023-07-24T09:29:00;94628.97;;;39.97;23.11
3832;BME280;12460;42.662;23.288;2023-07-24T09:44:03;94597.28;;;40.28;22.52
3832;BME280;12460;42.662;23.288;2023-07-24T09:59:06;94580.78;;;41.68;20.57
3832;BME280;12460;42.662;23.288;2023-07-24T10:14:08;94563.22;;;40.33;21.72
3832;BME280;12460;42.662;23.288;2023-07-24T10:29:13;94545.56;;;41.36;21.59
3832;BME280;12460;42.662;23.288;2023-07-24T10:44:15;94542.63;;;42.49;20.57
3832;BME280;12460;42.662;23.288;2023-07-24T10:59:17;94512.47;;;41.79;20.64
3832;BME280;12460;42.662;23.288;2023-07-24T11:14:19;94512.56;;;42.20;20.30
3832;BME280;12460;42.662;23.288;2023-07-24T11:29:21;94487.09;;;42.29;20.59
3832;BME280;12460;42.662;23.288;2023-07-24T11:44:27;94476.13;;;41.59;20.53
3832;BME280;12460;42.662;23.288;2023-07-24T11:59:37;94473.31;;;42.21;20.34
3832;BME280;12460;42.662;23.288;2023-07-24T12:14:39;94451.09;;;41.56;20.81
3832;BME280;12460;42.662;23.288;2023-07-24T12:29:41;94436.31;;;41.56;20.26
3832;BME280;12460;42.662;23.288;2023-07-24T12:44:43;94430.38;;;41.11;21.14
3832;BME280;12460;42.662;23.288;2023-07-24T12:59:45;94410.09;;;40.99;20.74
3832;BME280;12460;42.662;23.288;2023-07-24T13:14:48;94398.88;;;40.56;21.89
3832;BME280;12460;42.662;23.288;2023-07-24T13:29:49;94396.56;;;40.07;20.96
3832;BME280;12460;42.662;23.288;2023-07-24T13:44:51;94369.63;;;39.39;19.36
3832;BME280;12460;42.662;23.288;2023-07-24T13:59:53;94366.59;;;38.82;19.94
3832;BME280;12460;42.662;23.288;2023-07-24T14:14:55;94368.69;;;37.83;20.63
3832;BME280;12460;42.662;23.288;2023-07-24T14:29:57;94353.53;;;37.28;20.38
3832;BME280;12460;42.662;23.288;2023-07-24T14:44:59;94359.50;;;36.75;20.93
3832;BME280;12460;42.662;23.288;2023-07-24T15:00:04;94356.28;;;36.44;21.29
3832;BME280;12460;42.662;23.288;2023-07-24T15:15:06;94340.69;;;36.05;21.63
3832;BME280;12460;42.662;23.288;2023-07-24T15:30:08;94322.63;;;35.84;22.24
3832;BME280;12460;42.662;23.288;2023-07-24T15:45:10;94324.44;;;35.57;22.00
3832;BME280;12460;42.662;23.288;2023-07-24T16:00:12;94330.66;;;35.17;22.27
3832;BME280;12460;42.662;23.288;2023-07-24T16:15:14;94339.78;;;34.78;22.58
3832;BME280;12460;42.662;23.288;2023-07-24T16:30:17;94328.31;;;34.40;23.78
3832;BME280;12460;42.662;23.288;2023-07-24T16:45:19;94338.72;;;34.13;24.39
3832;BME280;12460;42.662;23.288;2023-07-24T17:00:23;94342.50;;;33.79;25.66
3832;BME280;12460;42.662;23.288;2023-07-24T17:15:25;94338.25;;;33.34;26.36
3832;BME280;12460;42.662;23.288;2023-07-24T17:30:27;94352.13;;;32.89;27.53
3832;BME280;12460;42.662;23.288;2023-07-24T17:45:29;94332.44;;;32.33;28.16
3832;BME280;12460;42.662;23.288;2023-07-24T18:00:31;94334.47;;;31.88;28.28
3832;BME280;12460;42.662;23.288;2023-07-24T18:15:34;94329.94;;;31.49;29.00
3832;BME280;12460;42.662;23.288;2023-07-24T18:30:36;94340.63;;;31.14;30.18
3832;BME280;12460;42.662;23.288;2023-07-24T18:45:38;94346.72;;;30.56;31.75
3832;BME280;12460;42.662;23.288;2023-07-24T19:00:40;94350.00;;;30.20;32.24
3832;BME280;12460;42.662;23.288;2023-07-24T19:15:42;94328.69;;;29.96;32.68
3832;BME280;12460;42.662;23.288;2023-07-24T19:30:44;94366.19;;;29.76;33.18
3832;BME280;12460;42.662;23.288;2023-07-24T19:45:51;94371.81;;;29.63;33.44
3832;BME280;12460;42.662;23.288;2023-07-24T20:00:54;94346.66;;;29.26;34.53
3832;BME280;12460;42.662;23.288;2023-07-24T20:15:58;94352.88;;;29.04;35.56
3832;BME280;12460;42.662;23.288;2023-07-24T20:31:00;94348.75;;;28.72;36.00
3832;BME280;12460;42.662;23.288;2023-07-24T20:46:10;94351.44;;;28.60;36.66
3832;BME280;12460;42.662;23.288;2023-07-24T21:01:13;94324.75;;;28.21;37.75
3832;BME280;12460;42.662;23.288;2023-07-24T21:16:16;94335.94;;;28.01;38.28
3832;BME280;12460;42.662;23.288;2023-07-24T21:31:18;94320.53;;;27.89;38.40
3832;BME280;12460;42.662;23.288;2023-07-24T21:46:21;94304.19;;;27.65;39.46
3832;BME280;12460;42.662;23.288;2023-07-24T22:01:24;94301.09;;;27.55;40.09
3832;BME280;12460;42.662;23.288;2023-07-24T22:16:26;94307.31;;;27.42;40.21
3832;BME280;12460;42.662;23.288;2023-07-24T22:31:28;94311.44;;;27.33;40.63
3832;BME280;12460;42.662;23.288;2023-07-24T22:46:30;94301.81;;;27.22;40.92
3832;BME280;12460;42.662;23.288;2023-07-24T23:01:32;94299.41;;;27.11;41.37
3832;BME280;12460;42.662;23.288;2023-07-24T23:16:35;94275.78;;;26.84;42.01
3832;BME280;12460;42.662;23.288;2023-07-24T23:31:37;94279.66;;;26.65;42.60
3832;BME280;12460;42.662;23.288;2023-07-24T23:46:38;94270.59;;;26.47;42.78
